Time;durP1;ratioP1;P1;durP2;ratioP2;P2;SDS_P1;SDS_P2;PMS_P1;PMS_P2;Temp;Humidity;BMP_temperature;BMP_pressure;BME280_temperature;BME280_humidity;BME280_pressure;Samples;Min_cycle;Max_cycle;Signal;HPM_P1;HPM_P2
2021/12/21 00:01:07;;;;;;;18.33;11.93;;;;;;;-0.72;100.00;97093.06;4965187;28;20074;-49
2021/12/21 00:03:36;;;;;;;19.20;12.05;;;;;;;-0.62;100.00;97090.91;4961580;28;20505;-48
2021/12/21 00:06:05;;;;;;;20.05;12.40;;;;;;;-0.54;100.00;97091.47;4978053;28;20076;-45
2021/12/21 00:08:33;;;;;;;18.95;11.38;;;;;;;-0.63;100.00;97090.09;4985588;28;20085;-50
2021/12/21 00:11:17;;;;;;;17.63;11.10;;;;;;;-0.53;100.00;97086.22;4986335;28;20062;-54
2021/12/21 00:14:10;;;;;;;17.90;10.25;;;;;;;-0.51;100.00;97081.00;4982603;28;20058;-46
2021/12/21 00:19:42;;;;;;;20.30;12.00;;;;;;;-0.81;100.00;97086.47;4955005;28;20121;-50
2021/12/21 00:22:26;;;;;;;18.80;11.13;;;;;;;-0.65;100.00;97078.97;4965552;28;20078;-47
2021/12/21 00:24:54;;;;;;;16.73;10.25;;;;;;;-0.70;100.00;97073.09;4984926;28;20072;-52
2021/12/21 00:27:24;;;;;;;13.80;10.57;;;;;;;-0.55;100.00;97076.81;4986949;28;20089;-54
2021/12/21 00:29:53;;;;;;;21.33;11.05;;;;;;;-0.53;100.00;97077.63;4973903;28;20070;-47
2021/12/21 00:32:23;;;;;;;14.82;10.10;;;;;;;-0.63;100.00;97069.38;4966094;28;20481;-53
2021/12/21 00:34:51;;;;;;;16.95;11.23;;;;;;;-1.10;100.00;97076.38;4965719;28;20062;-51
2021/12/21 00:37:22;;;;;;;16.95;11.15;;;;;;;-0.91;100.00;97074.78;4958126;28;20082;-50
2021/12/21 00:39:50;;;;;;;21.75;12.07;;;;;;;-0.91;100.00;97077.38;4968538;28;20070;-46
2021/12/21 00:42:19;;;;;;;15.20;10.50;;;;;;;-0.98;100.00;97079.34;4962466;28;20066;-51
2021/12/21 00:44:48;;;;;;;19.48;11.05;;;;;;;-1.00;100.00;97070.81;4976895;28;20065;-50
2021/12/21 00:47:17;;;;;;;17.35;11.38;;;;;;;-1.15;100.00;97061.03;4972840;28;20066;-46
2021/12/21 00:49:47;;;;;;;17.90;11.05;;;;;;;-0.88;100.00;97059.13;4970215;28;20070;-48
2021/12/21 00:52:16;;;;;;;18.65;11.20;;;;;;;-1.06;100.00;97060.69;4981324;28;20071;-56
2021/12/21 00:54:44;;;;;;;20.15;11.77;;;;;;;-1.32;100.00;97058.25;4984966;28;20196;-51
2021/12/21 00:57:13;;;;;;;18.15;11.55;;;;;;;-1.05;100.00;97056.38;4984143;28;20066;-50
2021/12/21 00:59:41;;;;;;;19.50;11.43;;;;;;;-1.11;100.00;97054.00;4981227;28;20073;-52
2021/12/21 01:02:11;;;;;;;20.08;11.02;;;;;;;-1.06;100.00;97055.53;4979562;28;20062;-48
2021/12/21 01:04:44;;;;;;;;;;;;;;;-0.98;100.00;97050.03;4984853;28;20097;-51
2021/12/21 01:07:20;;;;;;;17.30;10.80;;;;;;;-1.03;100.00;97054.56;4981247;28;19964;-51
2021/12/21 01:10:17;;;;;;;19.90;10.32;;;;;;;-1.11;100.00;97048.81;4990191;28;20562;-53
2021/12/21 01:12:53;;;;;;;18.83;10.65;;;;;;;-1.47;100.00;97045.00;4953100;28;20439;-47
2021/12/21 01:15:37;;;;;;;20.02;10.80;;;;;;;-1.10;100.00;97041.03;4980624;28;20331;-48
2021/12/21 01:18:12;;;;;;;26.15;12.45;;;;;;;-1.05;100.00;97043.41;4960138;28;20073;-51
2021/12/21 01:20:46;;;;;;;21.85;12.93;;;;;;;-1.37;100.00;97042.91;4991477;28;20077;-51
2021/12/21 01:26:09;;;;;;;29.10;13.55;;;;;;;-1.46;100.00;97030.31;4978453;28;20074;-51
2021/12/21 01:28:45;;;;;;;18.58;11.90;;;;;;;-1.18;100.00;97034.44;4980210;28;20082;-53
2021/12/21 01:31:25;;;;;;;25.13;11.80;;;;;;;-1.37;100.00;97021.38;4982667;28;20078;-53
2021/12/21 01:34:08;;;;;;;;;;;;;;;-1.28;100.00;97027.03;4984486;28;20082;-48
2021/12/21 01:36:43;;;;;;;16.02;9.73;;;;;;;-1.34;100.00;97022.09;4975173;28;20003;-51
2021/12/21 01:39:27;;;;;;;16.48;10.27;;;;;;;-1.17;100.00;97016.28;4966303;28;20489;-49
2021/12/21 01:42:02;;;;;;;18.00;10.90;;;;;;;-1.23;100.00;97016.50;4960543;28;20459;-49
2021/12/21 01:49:31;;;;;;;20.75;10.32;;;;;;;-1.28;100.00;97019.25;4971045;28;20398;-51
2021/12/21 01:50:14;;;;;;;17.40;10.02;;;;;;;-1.20;100.00;97006.06;4944502;28;20074;-48
2021/12/21 01:52:42;;;;;;;16.95;10.85;;;;;;;-1.18;100.00;97004.22;4976703;28;20080;-47
2021/12/21 01:55:11;;;;;;;13.95;10.32;;;;;;;-1.14;100.00;97003.19;4955912;28;20156;-50
2021/12/21 01:57:40;;;;;;;21.08;11.93;;;;;;;-1.09;100.00;97003.03;4965372;28;20053;-51
2021/12/21 02:00:10;;;;;;;20.10;11.25;;;;;;;-1.10;100.00;96994.44;4987429;28;20066;-51
2021/12/21 02:02:39;;;;;;;18.75;11.00;;;;;;;-1.12;100.00;96993.63;4971288;28;20457;-56
2021/12/21 02:05:08;;;;;;;21.48;12.30;;;;;;;-1.32;100.00;97002.16;4960799;28;20366;-50
2021/12/21 02:07:39;;;;;;;20.58;12.10;;;;;;;-1.44;100.00;96987.13;4963698;28;20069;-51
2021/12/21 02:10:09;;;;;;;16.70;11.15;;;;;;;-1.24;100.00;96984.63;4960202;28;20066;-51
2021/12/21 02:12:37;;;;;;;17.02;11.23;;;;;;;-1.17;100.00;96986.94;4959957;28;20420;-47
2021/12/21 02:15:07;;;;;;;18.33;10.10;;;;;;;-1.21;100.00;96983.63;4978247;28;20284;-48
2021/12/21 02:20:25;;;;;;;18.33;11.13;;;;;;;-1.14;100.00;96979.06;4947161;28;20082;-56
2021/12/21 02:22:59;;;;;;;18.73;10.75;;;;;;;-1.31;100.00;96971.97;4961455;28;20078;-52
2021/12/21 02:25:52;;;;;;;17.75;10.25;;;;;;;-1.26;100.00;96975.22;4956349;28;20125;-50
2021/12/21 02:31:17;;;;;;;17.38;10.63;;;;;;;-1.51;100.00;96959.81;4971309;28;20069;-49
2021/12/21 02:33:47;;;;;;;17.73;11.48;;;;;;;-1.66;100.00;96956.06;4985282;28;20125;-52
2021/12/21 02:36:18;;;;;;;18.35;10.70;;;;;;;-1.72;100.00;96964.91;4961048;28;20074;-50
2021/12/21 02:38:47;;;;;;;16.30;10.85;;;;;;;-1.97;100.00;96972.69;4960216;28;20452;-51
2021/12/21 02:41:15;;;;;;;16.30;10.05;;;;;;;-1.86;100.00;96964.53;4958644;28;20065;-53
2021/12/21 02:43:44;;;;;;;14.55;10.10;;;;;;;-1.79;100.00;96960.84;4965818;28;20070;-55
2021/12/21 02:46:12;;;;;;;18.23;10.77;;;;;;;-1.69;100.00;96967.38;4983616;28;20078;-49
2021/12/21 02:48:41;;;;;;;16.35;9.75;;;;;;;-1.74;100.00;96964.09;4991260;28;20089;-48
2021/12/21 02:51:09;;;;;;;19.00;9.98;;;;;;;-1.58;100.00;96966.09;4982356;28;20066;-49
2021/12/21 02:53:39;;;;;;;19.98;10.52;;;;;;;-1.54;100.00;96965.94;4967480;28;20158;-49
2021/12/21 02:56:08;;;;;;;17.13;10.55;;;;;;;-1.45;100.00;96962.97;4968665;28;20074;-47
2021/12/21 02:58:36;;;;;;;15.65;10.57;;;;;;;-1.41;100.00;96962.88;4973636;28;20469;-49
2021/12/21 03:01:05;;;;;;;13.65;9.88;;;;;;;-1.43;100.00;96965.53;4959069;28;20094;-51
2021/12/21 03:03:34;;;;;;;17.92;10.68;;;;;;;-1.34;100.00;96961.72;4981559;28;20066;-45
2021/12/21 03:06:08;;;;;;;14.82;9.82;;;;;;;-1.30;100.00;96964.16;4968411;28;20093;-57
2021/12/21 03:08:40;;;;;;;14.20;9.52;;;;;;;-1.52;100.00;96966.72;4961294;28;20082;-50
2021/12/21 03:11:16;;;;;;;16.92;9.05;;;;;;;-1.42;100.00;96959.44;4958680;28;20074;-54
2021/12/21 03:14:03;;;;;;;17.70;10.55;;;;;;;-1.46;100.00;96957.88;4959487;28;20075;-50
2021/12/21 03:16:33;;;;;;;12.68;9.43;;;;;;;-1.40;100.00;96962.00;4965791;28;20046;-55
2021/12/21 03:19:02;;;;;;;16.45;10.85;;;;;;;-1.96;100.00;96961.47;4965901;28;20083;-54
2021/12/21 03:21:31;;;;;;;15.02;10.00;;;;;;;-1.54;100.00;96958.19;4977372;28;20525;-52
2021/12/21 03:23:59;;;;;;;13.85;9.80;;;;;;;-1.69;100.00;96957.03;4977182;28;20132;-48
2021/12/21 03:26:29;;;;;;;14.07;10.05;;;;;;;-1.62;100.00;96961.94;4980370;28;20066;-47
2021/12/21 03:28:58;;;;;;;13.73;10.13;;;;;;;-1.38;100.00;96960.16;4973754;28;20081;-54
2021/12/21 03:31:27;;;;;;;15.43;10.13;;;;;;;-1.53;100.00;96961.59;4964539;28;20078;-47
2021/12/21 03:33:56;;;;;;;12.40;10.25;;;;;;;-1.54;100.00;96953.00;4963906;28;20143;-51
2021/12/21 03:36:24;;;;;;;15.25;10.52;;;;;;;-1.49;100.00;96956.25;4960309;28;20190;-47
2021/12/21 03:38:58;;;;;;;15.65;10.30;;;;;;;-1.58;100.00;96958.34;4961815;28;20078;-53
2021/12/21 03:41:27;;;;;;;18.00;10.35;;;;;;;-1.47;100.00;96953.63;4962935;28;20549;-53
2021/12/21 03:44:00;;;;;;;15.85;10.40;;;;;;;-1.49;100.00;96955.41;4978963;28;20070;-52
2021/12/21 03:46:28;;;;;;;17.95;10.75;;;;;;;-1.71;100.00;96956.25;4977578;28;20086;-50
2021/12/21 03:48:57;;;;;;;15.90;10.10;;;;;;;-1.67;100.00;96957.81;4968523;28;20082;-49
2021/12/21 03:51:25;;;;;;;14.27;10.43;;;;;;;-1.69;100.00;96951.88;4961616;28;20070;-48
2021/12/21 03:53:54;;;;;;;13.48;9.90;;;;;;;-1.59;100.00;96956.66;4976655;28;20532;-52
2021/12/21 03:56:37;;;;;;;13.95;10.18;;;;;;;-1.50;100.00;96952.00;4984675;28;20073;-46
2021/12/21 03:59:08;;;;;;;16.52;9.77;;;;;;;-1.44;100.00;96944.00;4985926;28;20105;-52
2021/12/21 04:01:36;;;;;;;15.32;10.40;;;;;;;-1.69;100.00;96951.00;4980292;28;20070;-52
2021/12/21 04:04:05;;;;;;;14.75;9.85;;;;;;;-1.56;100.00;96951.38;4987834;28;20074;-49
2021/12/21 04:06:33;;;;;;;14.05;10.05;;;;;;;-1.58;100.00;96942.81;4990580;28;20065;-50
2021/12/21 04:09:02;;;;;;;13.98;10.57;;;;;;;-1.57;100.00;96954.88;4972011;28;20070;-48
2021/12/21 04:11:31;;;;;;;17.53;10.77;;;;;;;-1.48;100.00;96945.03;4965196;28;20043;-50
2021/12/21 04:14:00;;;;;;;16.58;10.13;;;;;;;-1.39;100.00;96942.97;4966947;28;23678;-52
2021/12/21 04:16:30;;;;;;;15.05;10.10;;;;;;;-1.69;100.00;96949.28;4965940;28;20074;-49
2021/12/21 04:18:59;;;;;;;15.02;10.27;;;;;;;-1.36;100.00;96945.44;4988020;28;20096;-55
2021/12/21 04:21:28;;;;;;;16.15;10.55;;;;;;;-1.41;100.00;96945.63;4965445;28;20079;-49
2021/12/21 04:23:56;;;;;;;15.90;10.30;;;;;;;-1.54;100.00;96941.84;4978781;28;20116;-47
2021/12/21 04:26:25;;;;;;;15.60;9.63;;;;;;;-1.22;100.00;96948.34;4981985;28;20433;-49
2021/12/21 04:28:53;;;;;;;16.38;10.27;;;;;;;-1.47;100.00;96949.28;4983765;28;20088;-53
2021/12/21 04:31:21;;;;;;;14.90;9.90;;;;;;;-1.46;100.00;96944.97;4985073;28;20477;-50
2021/12/21 04:33:51;;;;;;;16.83;10.48;;;;;;;-1.46;100.00;96952.72;4981294;28;20485;-55
2021/12/21 04:36:19;;;;;;;14.98;10.55;;;;;;;-1.51;100.00;96946.88;4962332;28;20588;-53
2021/12/21 04:38:50;;;;;;;16.83;10.30;;;;;;;-1.48;100.00;96942.44;4972136;28;20074;-54
2021/12/21 04:41:23;;;;;;;15.20;10.55;;;;;;;-1.63;100.00;96947.34;4973433;28;20074;-51
2021/12/21 04:43:53;;;;;;;16.25;10.73;;;;;;;-1.52;100.00;96945.19;4964140;28;20077;-55
2021/12/21 04:46:21;;;;;;;15.43;10.50;;;;;;;-1.73;100.00;96949.44;4966070;28;20089;-52
2021/12/21 04:48:52;;;;;;;16.45;9.85;;;;;;;-1.57;100.00;96952.28;4962729;28;20085;-54
2021/12/21 04:51:21;;;;;;;18.15;10.70;;;;;;;-1.58;100.00;96945.41;4956453;28;20074;-58
2021/12/21 04:54:07;;;;;;;16.65;10.65;;;;;;;-1.63;100.00;96949.94;4958365;28;20045;-50
2021/12/21 04:56:36;;;;;;;16.35;10.80;;;;;;;-1.56;100.00;96952.22;4973454;28;20058;-48
2021/12/21 04:59:04;;;;;;;15.48;10.10;;;;;;;-1.62;100.00;96954.19;4971835;28;20446;-48
2021/12/21 05:01:33;;;;;;;17.50;10.82;;;;;;;-1.48;100.00;96962.25;4959574;28;20070;-52
2021/12/21 05:04:03;;;;;;;17.92;11.32;;;;;;;-1.41;100.00;96958.56;4981091;28;20631;-49
2021/12/21 05:06:31;;;;;;;15.57;10.63;;;;;;;-1.21;100.00;96961.19;4965535;28;20058;-48
2021/12/21 05:09:11;;;;;;;15.63;10.25;;;;;;;-1.30;100.00;96958.97;4964706;28;20500;-51
2021/12/21 05:11:43;;;;;;;21.50;10.43;;;;;;;-1.44;100.00;96956.94;4964010;28;20078;-54
2021/12/21 05:14:12;;;;;;;14.88;10.00;;;;;;;-1.47;100.00;96963.97;4963412;28;20518;-48
2021/12/21 05:16:41;;;;;;;15.23;10.00;;;;;;;-1.54;100.00;96958.19;4960701;28;20493;-46
2021/12/21 05:19:10;;;;;;;14.85;9.88;;;;;;;-1.42;100.00;96961.19;4967383;28;20094;-45
2021/12/21 05:21:39;;;;;;;18.65;10.95;;;;;;;-1.50;100.00;96956.31;4989422;28;20481;-48
2021/12/21 05:24:07;;;;;;;13.35;9.88;;;;;;;-1.46;100.00;96955.31;4971221;28;20096;-50
2021/12/21 05:26:37;;;;;;;14.90;9.90;;;;;;;-1.59;100.00;96954.91;4963528;28;20526;-47
2021/12/21 05:29:05;;;;;;;16.10;9.97;;;;;;;-1.67;100.00;96954.38;4977958;28;20077;-46
2021/12/21 05:31:34;;;;;;;13.50;9.10;;;;;;;-1.59;100.00;96961.84;4981761;28;20063;-47
2021/12/21 05:34:03;;;;;;;14.73;9.15;;;;;;;-1.50;100.00;96957.16;4969025;28;20082;-59
2021/12/21 05:36:33;;;;;;;16.35;9.50;;;;;;;-1.64;100.00;96956.84;4966797;28;20062;-51
2021/12/21 05:39:04;;;;;;;13.10;9.38;;;;;;;-1.76;100.00;96955.53;4962770;28;20059;-57
2021/12/21 05:41:47;;;;;;;13.70;9.35;;;;;;;-2.00;100.00;96957.28;4977422;28;20074;-54
2021/12/21 05:44:16;;;;;;;14.18;9.73;;;;;;;-1.99;100.00;96956.41;4986640;28;20076;-49
2021/12/21 05:46:45;;;;;;;11.57;9.05;;;;;;;-1.79;100.00;96952.25;4979849;28;20089;-51
2021/12/21 05:49:13;;;;;;;15.65;9.77;;;;;;;-1.81;100.00;96961.81;4983880;28;20517;-50
2021/12/21 05:51:44;;;;;;;15.80;10.15;;;;;;;-1.77;100.00;96965.97;4990889;28;20089;-48
2021/12/21 05:54:12;;;;;;;18.50;10.30;;;;;;;-1.79;100.00;96963.44;4966231;28;20062;-48
2021/12/21 05:56:41;;;;;;;19.80;10.43;;;;;;;-1.98;100.00;96965.00;4962732;28;20090;-50
2021/12/21 05:59:09;;;;;;;19.08;9.95;;;;;;;-2.20;100.00;96968.38;4971686;28;20457;-49
2021/12/21 06:01:38;;;;;;;17.02;9.50;;;;;;;-2.05;100.00;96960.97;4989229;28;20732;-49
2021/12/21 06:04:06;;;;;;;18.50;10.68;;;;;;;-1.91;100.00;96961.31;4987892;28;20092;-55
2021/12/21 06:06:35;;;;;;;15.80;10.05;;;;;;;-2.09;100.00;96967.13;4979888;28;21485;-49
2021/12/21 06:09:08;;;;;;;14.65;9.63;;;;;;;-2.27;100.00;96964.31;4985517;28;20609;-49
2021/12/21 06:11:43;;;;;;;14.30;9.90;;;;;;;-2.06;100.00;96961.88;4993627;28;20077;-55
2021/12/21 06:14:22;;;;;;;15.82;9.63;;;;;;;-1.92;100.00;96970.78;4983501;28;20077;-51
2021/12/21 06:25:37;;;;;;;15.27;9.05;;;;;;;-2.30;100.00;96967.00;4986742;28;20080;-51
2021/12/21 06:28:07;;;;;;;12.52;10.20;;;;;;;-2.09;100.00;96973.16;4982438;28;21529;-50
2021/12/21 06:30:37;;;;;;;14.23;10.50;;;;;;;-2.23;100.00;96970.22;4989367;28;20066;-48
2021/12/21 06:33:07;;;;;;;12.43;9.85;;;;;;;-2.27;100.00;96969.47;4987067;28;20062;-47
2021/12/21 06:35:36;;;;;;;16.73;10.05;;;;;;;-2.02;100.00;96966.84;4985423;28;20061;-53
2021/12/21 06:38:05;;;;;;;14.37;9.60;;;;;;;-2.06;100.00;96974.78;4975714;28;20089;-50
2021/12/21 06:40:35;;;;;;;15.90;9.90;;;;;;;-1.95;100.00;96972.66;4964878;28;20073;-50
2021/12/21 06:43:03;;;;;;;;;;;;;;;-2.05;100.00;96979.88;4969805;28;20074;-54
2021/12/21 06:45:45;;;;;;;16.55;10.15;;;;;;;-2.35;100.00;96975.78;4986109;28;19953;-55
2021/12/21 06:51:16;;;;;;;17.27;10.73;;;;;;;-2.23;100.00;96970.22;4981766;28;20066;-51
2021/12/21 06:53:46;;;;;;;16.80;9.60;;;;;;;-2.12;100.00;96964.66;4991187;28;20524;-57
2021/12/21 06:56:17;;;;;;;14.25;10.00;;;;;;;-2.06;100.00;96960.13;4983967;28;20069;-54
2021/12/21 06:58:45;;;;;;;;;;;;;;;-2.02;100.00;96959.09;4990333;28;20458;-52
2021/12/21 07:01:14;;;;;;;13.23;10.38;;;;;;;-1.89;100.00;96956.06;4985847;28;19953;-52
2021/12/21 07:03:44;;;;;;;17.35;9.93;;;;;;;-1.91;100.00;96963.88;4989640;28;20090;-50
2021/12/21 07:06:16;;;;;;;13.50;10.10;;;;;;;-1.94;100.00;96967.41;4988552;28;20057;-52
2021/12/21 07:08:48;;;;;;;13.38;9.93;;;;;;;-2.22;100.00;96967.56;4973850;28;20100;-54
2021/12/21 07:11:25;;;;;;;15.40;10.70;;;;;;;-1.88;100.00;96965.53;4977414;28;20081;-52
2021/12/21 07:19:26;;;;;;;17.20;11.25;;;;;;;-1.73;100.00;96964.94;4987828;28;20081;-50
2021/12/21 07:21:54;;;;;;;15.80;10.75;;;;;;;-1.85;100.00;96961.06;4994504;28;20077;-56
2021/12/21 07:24:23;;;;;;;20.67;11.52;;;;;;;-2.10;100.00;96961.09;4989429;28;20531;-54
2021/12/21 07:26:54;;;;;;;19.10;12.38;;;;;;;-1.76;100.00;96967.63;4971334;28;20054;-56
2021/12/21 07:29:23;;;;;;;20.10;11.93;;;;;;;-1.81;100.00;96972.16;4978432;28;20050;-53
2021/12/21 07:31:51;;;;;;;14.55;10.73;;;;;;;-1.82;100.00;96968.72;4987062;28;20512;-53
2021/12/21 07:34:20;;;;;;;24.10;12.07;;;;;;;-1.82;100.00;96970.47;4984268;28;20090;-51
2021/12/21 07:36:48;;;;;;;22.33;12.73;;;;;;;-1.69;100.00;96967.38;4990387;28;20085;-54
2021/12/21 07:39:18;;;;;;;22.85;12.48;;;;;;;-1.45;100.00;96969.91;4999526;28;20057;-51
2021/12/21 07:42:06;;;;;;;23.58;13.52;;;;;;;-1.14;100.00;96973.91;4987031;28;20065;-48
2021/12/21 07:44:34;;;;;;;;;;;;;;;-1.41;100.00;96975.81;4990322;28;20062;-53
2021/12/21 07:47:03;;;;;;;15.40;10.57;;;;;;;-1.40;100.00;96968.00;4987052;28;19965;-59
2021/12/21 07:49:32;;;;;;;17.42;11.40;;;;;;;-1.28;100.00;96974.44;4990426;28;20078;-53
2021/12/21 07:52:01;;;;;;;18.13;10.68;;;;;;;-0.81;100.00;96974.31;4995174;28;20077;-48
2021/12/21 07:54:29;;;;;;;15.60;11.18;;;;;;;-1.06;100.00;96977.03;4965367;28;20093;-51
2021/12/21 07:56:58;;;;;;;17.05;10.95;;;;;;;-1.04;100.00;96968.28;4966794;28;20063;-52
2021/12/21 07:59:29;;;;;;;16.45;11.20;;;;;;;-1.42;100.00;96972.38;4977069;28;20065;-54
2021/12/21 08:01:57;;;;;;;21.88;12.70;;;;;;;-1.14;100.00;96971.31;4983115;28;20066;-55
2021/12/21 08:04:28;;;;;;;23.70;13.07;;;;;;;-1.31;100.00;96966.78;4990794;28;20074;-50
2021/12/21 08:07:00;;;;;;;;;;;;;;;-1.11;100.00;96964.25;4998920;28;20151;-53
2021/12/21 08:09:32;;;;;;;22.25;13.02;;;;;;;-0.91;100.00;96971.25;4989999;28;19965;-53
2021/12/21 08:12:16;;;;;;;28.85;14.38;;;;;;;-1.04;100.00;96973.47;4988007;28;20070;-51
2021/12/21 08:14:48;;;;;;;23.98;13.32;;;;;;;-0.93;100.00;96962.69;4986174;28;20058;-53
2021/12/21 08:17:17;;;;;;;23.88;13.27;;;;;;;-1.01;100.00;96978.53;4992148;28;20069;-54
2021/12/21 08:19:46;;;;;;;31.63;14.90;;;;;;;-0.74;100.00;96980.91;4988265;28;20525;-53
2021/12/21 08:22:15;;;;;;;27.48;14.85;;;;;;;-0.70;100.00;96973.84;4988595;28;20082;-51
2021/12/21 08:24:44;;;;;;;27.23;14.07;;;;;;;-0.27;100.00;96976.34;4970346;28;20493;-50
2021/12/21 08:27:12;;;;;;;28.15;15.73;;;;;;;-0.03;100.00;96977.03;4984006;28;20066;-51
2021/12/21 08:29:41;;;;;;;29.52;15.85;;;;;;;-0.08;100.00;96972.94;4967557;28;20074;-50
2021/12/21 08:32:11;;;;;;;29.00;16.65;;;;;;;-0.35;100.00;96972.38;4963656;28;20066;-51
2021/12/21 08:34:39;;;;;;;26.50;14.05;;;;;;;-0.47;100.00;96973.75;4958944;28;20350;-53
2021/12/21 08:37:08;;;;;;;30.35;15.07;;;;;;;-0.43;100.00;96967.53;4967441;28;20111;-57
2021/12/21 08:39:40;;;;;;;29.98;15.23;;;;;;;-0.29;100.00;96979.91;4984948;28;20113;-53
2021/12/21 08:42:12;;;;;;;25.98;15.18;;;;;;;-0.35;100.00;96978.41;5007794;28;20077;-53
2021/12/21 08:44:41;;;;;;;35.53;16.50;;;;;;;-0.34;100.00;96976.69;4989056;28;20539;-50
2021/12/21 08:47:10;;;;;;;29.33;17.10;;;;;;;-0.18;100.00;96979.44;4985632;28;20069;-50
2021/12/21 08:49:44;;;;;;;31.30;17.00;;;;;;;-0.07;100.00;96977.22;4985987;28;20074;-55
2021/12/21 08:52:12;;;;;;;38.03;18.42;;;;;;;-0.19;100.00;96975.16;4990454;28;20077;-52
2021/12/21 08:54:41;;;;;;;28.20;16.48;;;;;;;-0.27;100.00;96985.88;4967617;28;20089;-51
2021/12/21 08:57:09;;;;;;;30.40;18.15;;;;;;;0.04;100.00;96980.19;4980297;28;20115;-53
2021/12/21 08:59:38;;;;;;;29.35;17.08;;;;;;;-0.33;100.00;96993.91;4987219;28;20070;-51
2021/12/21 09:02:06;;;;;;;35.03;20.27;;;;;;;-0.58;100.00;96989.75;4991318;28;20692;-51
2021/12/21 09:04:37;;;;;;;32.05;18.90;;;;;;;-0.46;100.00;96982.34;4988982;28;20487;-51
2021/12/21 09:07:06;;;;;;;28.25;17.33;;;;;;;-0.17;100.00;96978.53;4993143;28;20108;-54
2021/12/21 09:09:34;;;;;;;31.05;16.98;;;;;;;-0.12;100.00;96977.41;4985036;28;20065;-54
2021/12/21 09:12:03;;;;;;;32.03;18.42;;;;;;;-0.30;100.00;96984.25;4986232;28;20081;-50
2021/12/21 09:14:32;;;;;;;31.85;17.63;;;;;;;-0.07;100.00;96985.00;4975426;28;20066;-50
2021/12/21 09:17:01;;;;;;;28.42;17.63;;;;;;;-0.23;100.00;96989.19;4972731;28;20065;-49
2021/12/21 09:19:30;;;;;;;27.42;15.68;;;;;;;-0.25;100.00;96986.63;4989152;28;20786;-50
2021/12/21 09:22:02;;;;;;;;;;;;;;;0.24;100.00;96984.47;4985007;28;20077;-58
2021/12/21 09:24:31;;;;;;;29.80;16.60;;;;;;;0.43;100.00;96984.50;4959591;28;19973;-52
2021/12/21 09:27:00;;;;;;;29.88;17.40;;;;;;;-0.03;100.00;96987.41;4962043;28;20509;-53
2021/12/21 09:29:28;;;;;;;24.95;16.10;;;;;;;-0.22;100.00;96983.06;4974010;28;20066;-54
2021/12/21 09:31:57;;;;;;;24.60;14.60;;;;;;;-0.28;100.00;96977.22;4987199;28;20070;-50
2021/12/21 09:34:25;;;;;;;23.05;15.20;;;;;;;-0.23;100.00;96986.59;4990847;28;20082;-53
2021/12/21 09:36:53;;;;;;;28.52;17.58;;;;;;;-0.27;100.00;96981.53;4994552;28;20089;-55
2021/12/21 09:39:23;;;;;;;29.15;15.93;;;;;;;0.33;100.00;96985.84;4986465;28;20066;-53
2021/12/21 09:41:52;;;;;;;26.50;16.17;;;;;;;0.79;100.00;96970.72;4981964;28;20463;-56
2021/12/21 09:44:20;;;;;;;25.17;15.55;;;;;;;1.31;100.00;96978.66;4988511;28;20076;-48
2021/12/21 09:46:49;;;;;;;28.52;17.60;;;;;;;0.57;100.00;96976.94;4990095;28;20077;-51
2021/12/21 09:49:17;;;;;;;28.08;15.18;;;;;;;0.48;100.00;96974.75;4985593;28;20548;-50
2021/12/21 09:51:46;;;;;;;27.55;16.45;;;;;;;0.30;100.00;96970.41;4991683;28;20082;-49
2021/12/21 09:54:17;;;;;;;25.60;15.52;;;;;;;0.56;100.00;96974.41;4983724;28;20074;-48
2021/12/21 09:56:47;;;;;;;25.52;16.20;;;;;;;0.35;100.00;96973.66;4969036;28;20070;-49
2021/12/21 09:59:15;;;;;;;30.00;17.60;;;;;;;0.85;100.00;96971.28;4961309;28;20077;-50
2021/12/21 10:01:45;;;;;;;26.10;16.90;;;;;;;1.01;100.00;96961.03;4963649;28;20073;-47
2021/12/21 10:04:13;;;;;;;25.38;16.73;;;;;;;0.95;100.00;96959.56;4962983;28;20144;-52
2021/12/21 10:06:47;;;;;;;27.67;17.10;;;;;;;0.49;100.00;96963.47;4965660;28;20161;-51
2021/12/21 10:09:16;;;;;;;23.38;14.63;;;;;;;0.98;100.00;96963.78;4981995;28;20062;-50
2021/12/21 10:12:07;;;;;;;26.13;16.45;;;;;;;1.18;100.00;96953.25;4969430;28;20199;-48
2021/12/21 10:14:35;;;;;;;29.20;16.25;;;;;;;1.28;100.00;96945.03;4974892;28;20077;-51
2021/12/21 10:17:05;;;;;;;25.52;15.48;;;;;;;1.12;100.00;96945.75;4976029;28;20078;-53
2021/12/21 10:19:35;;;;;;;25.90;16.42;;;;;;;1.31;100.00;96939.69;4961793;28;20100;-55
2021/12/21 10:22:11;;;;;;;27.80;16.38;;;;;;;0.71;100.00;96939.94;4987666;28;20086;-49
2021/12/21 10:24:48;;;;;;;29.02;16.75;;;;;;;0.67;100.00;96949.63;4986206;28;20069;-50
2021/12/21 10:27:19;;;;;;;33.25;16.85;;;;;;;0.39;100.00;96951.84;4985402;28;20062;-53
2021/12/21 10:29:49;;;;;;;26.23;16.00;;;;;;;0.46;100.00;96937.69;4991927;28;20073;-54
2021/12/21 10:32:20;;;;;;;32.08;18.58;;;;;;;0.82;100.00;96945.47;4986020;28;20074;-53
2021/12/21 10:34:56;;;;;;;29.30;17.83;;;;;;;0.89;100.00;96936.47;4983888;28;20076;-53
2021/12/21 10:37:27;;;;;;;29.10;18.27;;;;;;;1.47;100.00;96934.53;4985986;28;20078;-52
2021/12/21 10:40:09;;;;;;;26.98;16.38;;;;;;;1.34;100.00;96931.69;4989428;28;20081;-48
2021/12/21 10:42:53;;;;;;;25.92;16.02;;;;;;;0.90;100.00;96943.38;4990139;28;20340;-53
2021/12/21 10:45:26;;;;;;;27.05;16.45;;;;;;;1.17;100.00;96936.00;4985745;28;20066;-53
2021/12/21 10:47:55;;;;;;;29.05;16.60;;;;;;;1.73;100.00;96935.84;4974037;28;20081;-53
2021/12/21 10:50:24;;;;;;;28.15;16.17;;;;;;;1.36;100.00;96941.13;4963773;28;20748;-51
2021/12/21 10:52:57;;;;;;;30.33;17.38;;;;;;;0.93;100.00;96937.19;4969998;28;20074;-50
2021/12/21 10:55:30;;;;;;;27.52;14.95;;;;;;;1.38;100.00;96936.69;4985093;28;20093;-54
2021/12/21 10:58:06;;;;;;;31.48;17.98;;;;;;;1.18;100.00;96935.06;4989194;28;20082;-48
2021/12/21 11:00:36;;;;;;;26.33;15.88;;;;;;;1.86;100.00;96932.53;4977653;28;20498;-47
2021/12/21 11:03:05;;;;;;;25.48;14.98;;;;;;;1.29;100.00;96931.94;4979994;28;20081;-53
2021/12/21 11:05:36;;;;;;;;;;;;;;;1.06;100.00;96933.06;4987704;28;20421;-52
2021/12/21 11:08:07;;;;;;;24.15;14.65;;;;;;;1.35;100.00;96934.25;4988018;28;20196;-49
2021/12/21 11:10:37;;;;;;;24.25;14.50;;;;;;;1.41;100.00;96931.34;4982252;28;20062;-56
2021/12/21 11:13:11;;;;;;;22.52;14.00;;;;;;;1.95;100.00;96923.38;4995177;28;20439;-53
2021/12/21 11:15:41;;;;;;;22.48;14.02;;;;;;;1.37;100.00;96921.16;4961589;28;20418;-50
2021/12/21 11:18:12;;;;;;;25.65;15.32;;;;;;;1.56;100.00;96915.91;4982615;28;20073;-58
2021/12/21 11:20:43;;;;;;;26.17;16.05;;;;;;;1.58;100.00;96903.63;4984253;28;20733;-51
2021/12/21 11:23:13;;;;;;;22.73;13.63;;;;;;;1.41;100.00;96917.50;4983254;28;20069;-53
2021/12/21 11:25:42;;;;;;;20.75;14.40;;;;;;;1.72;100.00;96898.59;4987407;28;20071;-50
2021/12/21 11:28:15;;;;;;;20.73;14.00;;;;;;;1.23;100.00;96901.06;4997562;28;20082;-50
2021/12/21 11:30:44;;;;;;;20.48;12.30;;;;;;;1.30;100.00;96892.06;4983403;28;20492;-52
2021/12/21 11:33:13;;;;;;;19.05;11.95;;;;;;;1.06;100.00;96891.50;4983088;28;20122;-49
2021/12/21 11:38:27;;;;;;;23.02;13.27;;;;;;;1.00;100.00;96885.78;4989457;28;20089;-50
2021/12/21 11:40:55;;;;;;;18.38;11.35;;;;;;;0.98;100.00;96887.63;4985959;28;20270;-49
2021/12/21 11:43:29;;;;;;;21.60;13.40;;;;;;;0.94;100.00;96889.53;4985231;28;20085;-48
2021/12/21 11:45:59;;;;;;;19.95;13.05;;;;;;;1.27;100.00;96880.97;4987447;28;20090;-50
2021/12/21 11:48:33;;;;;;;24.08;14.18;;;;;;;1.48;100.00;96871.25;4984340;28;20543;-51
2021/12/21 11:51:06;;;;;;;20.98;13.60;;;;;;;1.59;100.00;96877.59;4986770;28;20516;-48
2021/12/21 11:53:35;;;;;;;21.33;11.95;;;;;;;1.30;100.00;96883.41;4973957;28;20065;-49
2021/12/21 11:56:04;;;;;;;23.90;13.20;;;;;;;1.36;100.00;96883.94;4976076;28;20077;-58
2021/12/21 11:58:38;;;;;;;20.63;13.45;;;;;;;1.38;100.00;96876.94;4984788;28;20066;-50
2021/12/21 12:01:15;;;;;;;20.45;13.02;;;;;;;1.65;100.00;96879.88;4966795;28;20069;-50
2021/12/21 12:03:55;;;;;;;20.52;13.63;;;;;;;1.48;100.00;96872.09;4985841;28;20082;-52
2021/12/21 12:06:24;;;;;;;22.02;13.60;;;;;;;1.69;100.00;96866.69;4992348;28;20081;-51